Main page
METAR-TAF:

METAR-TAF

Airports :

Stockholm Arlanda Airport

Stockholm-Arlanda, Sweden

latitude: 59-39N, longitude: 017-57E, elevation: 38 m

Current weather observation

The report was made 17 minutes ago, at 16:50 UTC
Wind 2 kt from the Northwest
Temperature 7°C
Humidity 87%
Pressure 1018 hPa
Visibility 10 km or more
no clouds below 1500 m and no cumulonimbus

METAR: ESSA 181650Z 31002KT CAVOK 07/05 Q1018 NOSIG

Time: 19:07 (17:07 UTC)

Forecast

The report was made 1 hour and 19 minutes ago, at 15:48 UTC
Forecast valid from 18 at 15 UTC to 19 at 12 UTC
Wind 6 kt from the West/Northwest
Visibility 10 km or more
no clouds below 1500 m and no cumulonimbus

TAF: ESSA 181548Z 1815/1912 29006KT CAVOK

Weather observations and forecasts of more than 4000 airports (METAR and TAF reports).

The available stations are represented by yellow and red dots on the map.

Hover mouse over dot to see the name of the station.

Then click to see weather observations and forecasts.

To change the map : click on the green buttons with a black cross to zoom in, on the green button with a dash to zoom out, or on the green arrows for adjacent maps.


METAR-TAF: